createdAt,value
2018-09-28T00:01:04.282Z,16.60
2018-09-28T00:03:32.847Z,16.60
2018-09-28T00:06:01.643Z,16.60
2018-09-28T00:08:30.033Z,16.60
2018-09-28T00:10:58.286Z,16.50
2018-09-28T00:13:27.760Z,16.50
2018-09-28T00:15:56.199Z,16.50
2018-09-28T00:18:24.882Z,16.50
2018-09-28T00:20:53.746Z,16.40
2018-09-28T00:23:22.330Z,16.40
2018-09-28T00:25:50.626Z,16.30
2018-09-28T00:28:18.855Z,16.30
2018-09-28T00:30:47.446Z,16.30
2018-09-28T00:33:15.994Z,16.30
2018-09-28T00:35:44.259Z,16.30
2018-09-28T00:38:12.584Z,16.30
2018-09-28T00:40:41.118Z,16.30
2018-09-28T00:43:09.458Z,16.30
2018-09-28T00:45:37.843Z,16.30
2018-09-28T00:48:06.236Z,16.20
2018-09-28T00:50:34.558Z,16.20
2018-09-28T00:53:02.862Z,16.10
2018-09-28T00:55:31.204Z,16.10
2018-09-28T00:57:59.485Z,16.10
2018-09-28T01:00:27.799Z,16.00
2018-09-28T01:02:56.416Z,16.00
2018-09-28T01:05:24.682Z,16.00
2018-09-28T01:07:53.833Z,15.90
2018-09-28T01:10:22.330Z,15.90
2018-09-28T01:12:50.640Z,15.90
2018-09-28T01:15:18.947Z,15.80
2018-09-28T01:17:47.250Z,15.80
2018-09-28T01:20:15.586Z,15.80
2018-09-28T01:22:46.857Z,15.80
2018-09-28T01:25:15.218Z,15.80
2018-09-28T01:27:43.515Z,15.80
2018-09-28T01:30:11.814Z,15.80
2018-09-28T01:35:24.965Z,15.70
2018-09-28T01:37:53.461Z,15.70
2018-09-28T01:40:22.143Z,15.70
2018-09-28T01:42:50.535Z,15.70
2018-09-28T01:45:18.750Z,15.70
2018-09-28T01:47:47.065Z,15.70
2018-09-28T01:50:15.289Z,15.70
2018-09-28T01:52:43.558Z,15.70
2018-09-28T01:55:11.902Z,15.60
2018-09-28T01:57:40.285Z,15.60
2018-09-28T02:00:08.738Z,15.50
2018-09-28T02:02:37.139Z,15.40
2018-09-28T02:05:05.420Z,15.40
2018-09-28T02:07:33.678Z,15.40
2018-09-28T02:10:02.561Z,15.40
2018-09-28T02:12:32.852Z,15.30
2018-09-28T02:15:01.374Z,15.40
2018-09-28T02:17:29.744Z,15.30
2018-09-28T02:19:58.193Z,15.30
2018-09-28T02:22:26.494Z,15.30
2018-09-28T02:24:55.371Z,15.30
2018-09-28T02:27:23.615Z,15.20
2018-09-28T02:29:52.066Z,15.20
2018-09-28T02:32:20.572Z,15.20
2018-09-28T02:34:48.834Z,15.20
2018-09-28T02:37:17.348Z,15.20
2018-09-28T02:39:45.673Z,15.20
2018-09-28T02:42:13.968Z,15.20
2018-09-28T02:44:42.331Z,15.20
2018-09-28T02:47:10.642Z,15.20
2018-09-28T02:49:38.893Z,15.10
2018-09-28T02:52:07.193Z,15.10
2018-09-28T02:54:35.655Z,15.10
2018-09-28T02:57:04.323Z,15.10
2018-09-28T02:59:32.445Z,15.10
2018-09-28T03:02:00.669Z,15.00
2018-09-28T03:04:28.945Z,15.00
2018-09-28T03:06:57.275Z,15.00
2018-09-28T03:09:25.602Z,14.90
2018-09-28T03:11:54.074Z,14.90
2018-09-28T03:14:22.437Z,14.90
2018-09-28T03:16:50.703Z,14.90
2018-09-28T03:19:18.949Z,14.90
2018-09-28T03:21:47.137Z,14.90
2018-09-28T03:24:15.474Z,14.90
2018-09-28T03:26:43.714Z,14.90
2018-09-28T03:29:11.954Z,14.90
2018-09-28T03:31:40.204Z,14.90
2018-09-28T03:34:08.822Z,14.80
2018-09-28T03:36:37.100Z,14.80
2018-09-28T03:39:06.737Z,14.80
2018-09-28T03:41:35.016Z,14.80
2018-09-28T03:44:03.288Z,14.80
2018-09-28T03:46:31.623Z,14.80
2018-09-28T03:48:59.890Z,14.70
2018-09-28T03:51:28.210Z,14.70
2018-09-28T03:53:56.442Z,14.70
2018-09-28T03:56:24.681Z,14.60
2018-09-28T03:58:52.969Z,14.60
2018-09-28T04:01:21.214Z,14.60
2018-09-28T04:03:49.463Z,14.60
2018-09-28T04:06:17.650Z,14.50
2018-09-28T04:08:45.910Z,14.50
2018-09-28T04:11:14.190Z,14.50
2018-09-28T04:13:42.476Z,14.50
2018-09-28T04:16:10.831Z,14.50
2018-09-28T04:18:39.073Z,14.40
2018-09-28T04:21:07.354Z,14.40
2018-09-28T04:23:35.578Z,14.40
2018-09-28T04:26:03.862Z,14.40
2018-09-28T04:28:32.257Z,14.40
2018-09-28T04:31:00.534Z,14.40
2018-09-28T04:33:28.776Z,14.30
2018-09-28T04:35:57.005Z,14.30
2018-09-28T04:38:25.237Z,14.30
2018-09-28T04:40:53.467Z,14.20
2018-09-28T04:43:21.725Z,14.20
2018-09-28T04:45:50.007Z,14.20
2018-09-28T04:48:18.246Z,14.20
2018-09-28T04:50:46.501Z,14.20
2018-09-28T04:53:14.787Z,14.10
2018-09-28T04:55:43.033Z,14.00
2018-09-28T04:58:11.332Z,14.00
2018-09-28T05:00:39.642Z,14.00
2018-09-28T05:03:07.899Z,14.00
2018-09-28T05:05:36.150Z,14.00
2018-09-28T05:08:04.377Z,14.00
2018-09-28T05:10:34.049Z,14.00
2018-09-28T05:13:02.337Z,14.00
2018-09-28T05:15:30.573Z,14.00
2018-09-28T05:17:58.982Z,14.10
2018-09-28T05:20:27.247Z,14.10
2018-09-28T05:22:55.750Z,14.10
2018-09-28T05:25:24.050Z,14.10
2018-09-28T05:27:52.337Z,14.10
2018-09-28T05:30:20.738Z,14.10
2018-09-28T05:32:49.215Z,14.20
2018-09-28T05:35:17.306Z,14.20
2018-09-28T05:37:45.686Z,14.20
2018-09-28T05:40:14.937Z,14.20
2018-09-28T05:42:43.175Z,14.20
2018-09-28T05:45:11.410Z,14.20
2018-09-28T05:47:39.682Z,14.20
2018-09-28T05:50:07.942Z,14.20
2018-09-28T05:52:36.169Z,14.30
2018-09-28T05:55:04.616Z,14.30
2018-09-28T05:57:33.175Z,14.30
2018-09-28T06:00:06.970Z,14.40
2018-09-28T06:02:40.964Z,14.50
2018-09-28T06:05:14.553Z,14.50
2018-09-28T06:07:43.178Z,14.60
2018-09-28T06:10:12.017Z,14.70
2018-09-28T06:12:40.593Z,14.70
2018-09-28T06:15:09.445Z,14.80
2018-09-28T06:17:38.147Z,14.90
2018-09-28T06:20:07.028Z,15.10
2018-09-28T06:22:35.607Z,15.30
2018-09-28T06:25:04.110Z,15.50
2018-09-28T06:27:32.635Z,15.70
2018-09-28T06:30:01.052Z,15.70
2018-09-28T06:32:29.710Z,15.80
2018-09-28T06:34:58.049Z,15.90
2018-09-28T06:37:26.351Z,15.90
2018-09-28T06:39:54.589Z,15.90
2018-09-28T06:42:22.909Z,15.90
2018-09-28T06:44:51.164Z,15.80
2018-09-28T06:47:19.822Z,15.90
2018-09-28T06:49:48.067Z,15.80
2018-09-28T06:52:17.279Z,15.70
2018-09-28T06:54:45.578Z,15.70
2018-09-28T06:57:14.031Z,15.60
2018-09-28T06:59:42.865Z,15.60
2018-09-28T07:02:11.138Z,15.70
2018-09-28T07:04:39.490Z,15.60
2018-09-28T07:07:14.128Z,15.40
2018-09-28T07:09:42.429Z,15.50
2018-09-28T07:12:10.695Z,15.50
2018-09-28T07:14:38.953Z,15.60
2018-09-28T07:17:08.177Z,15.60
2018-09-28T07:19:36.426Z,15.70
2018-09-28T07:22:05.019Z,15.70
2018-09-28T07:24:34.168Z,15.80
2018-09-28T07:27:02.710Z,15.80
2018-09-28T07:29:31.171Z,15.90
2018-09-28T07:32:00.408Z,15.70
2018-09-28T07:34:28.789Z,15.60
2018-09-28T07:36:57.429Z,15.60
2018-09-28T07:39:25.620Z,15.60
2018-09-28T07:41:54.036Z,15.40
2018-09-28T07:44:22.328Z,15.40
2018-09-28T07:46:50.614Z,15.40
2018-09-28T07:49:18.903Z,15.40
2018-09-28T07:51:47.262Z,15.50
2018-09-28T07:54:16.284Z,15.40
2018-09-28T07:56:44.713Z,15.10
2018-09-28T07:59:13.957Z,14.90
2018-09-28T08:01:42.216Z,14.90
2018-09-28T08:04:10.550Z,15.00
2018-09-28T08:06:38.830Z,15.00
2018-09-28T08:09:08.377Z,14.90
2018-09-28T08:11:36.716Z,14.80
2018-09-28T08:14:05.111Z,14.80
2018-09-28T08:16:33.766Z,14.90
2018-09-28T08:19:02.192Z,15.00
2018-09-28T08:21:30.674Z,15.00
2018-09-28T08:23:58.945Z,15.10
2018-09-28T08:26:29.371Z,15.20
2018-09-28T08:28:57.654Z,15.30
2018-09-28T08:31:25.918Z,15.30
2018-09-28T08:33:54.158Z,15.10
2018-09-28T08:36:22.929Z,15.00
2018-09-28T08:38:51.746Z,15.00
2018-09-28T08:41:20.022Z,15.10
2018-09-28T08:43:48.327Z,15.20
2018-09-28T08:46:16.612Z,15.10
2018-09-28T08:48:44.874Z,15.10
2018-09-28T08:51:13.154Z,15.10
2018-09-28T08:53:41.787Z,15.00
2018-09-28T08:56:10.063Z,15.10
2018-09-28T08:58:38.362Z,15.20
2018-09-28T09:01:06.979Z,15.30
2018-09-28T09:03:35.371Z,15.30
2018-09-28T09:06:03.626Z,15.40
2018-09-28T09:08:31.912Z,15.40
2018-09-28T09:11:00.182Z,15.40
2018-09-28T09:13:28.561Z,15.40
2018-09-28T09:15:56.899Z,15.40
2018-09-28T09:18:25.447Z,15.40
2018-09-28T09:20:55.428Z,15.50
2018-09-28T09:23:23.890Z,15.60
2018-09-28T09:25:52.119Z,15.60
2018-09-28T09:28:20.373Z,15.60
2018-09-28T09:30:48.680Z,15.50
2018-09-28T09:33:17.400Z,15.50
2018-09-28T09:35:46.246Z,15.60
2018-09-28T09:38:14.678Z,15.60
2018-09-28T09:40:43.078Z,15.60
2018-09-28T09:43:11.846Z,15.50
2018-09-28T09:45:40.166Z,15.50
2018-09-28T09:48:08.505Z,15.60
2018-09-28T09:50:37.059Z,15.70
2018-09-28T09:53:05.860Z,15.80
2018-09-28T09:55:34.565Z,15.90
2018-09-28T09:58:02.929Z,15.90
2018-09-28T10:00:36.771Z,16.00
2018-09-28T10:03:10.502Z,16.00
2018-09-28T10:05:38.898Z,15.90
2018-09-28T10:08:07.163Z,15.80
2018-09-28T10:10:35.508Z,15.80
2018-09-28T10:13:04.423Z,15.90
2018-09-28T10:15:33.232Z,15.90
2018-09-28T10:18:02.089Z,16.00
2018-09-28T10:20:31.457Z,16.00
2018-09-28T10:22:59.785Z,16.00
2018-09-28T10:25:28.833Z,16.10
2018-09-28T10:27:57.110Z,16.10
2018-09-28T10:30:29.882Z,16.10
2018-09-28T10:32:58.170Z,16.10
2018-09-28T10:38:05.682Z,16.20
2018-09-28T10:40:34.743Z,16.20
2018-09-28T10:43:04.696Z,16.30
2018-09-28T10:45:33.907Z,16.30
2018-09-28T10:48:03.487Z,16.30
2018-09-28T10:50:31.780Z,16.30
2018-09-28T10:53:00.625Z,16.30
2018-09-28T10:55:29.364Z,16.30
2018-09-28T10:57:57.829Z,16.20
2018-09-28T11:00:26.164Z,16.30
2018-09-28T11:02:54.751Z,16.20
2018-09-28T11:05:23.270Z,16.20
2018-09-28T11:07:51.838Z,16.20
2018-09-28T11:10:20.401Z,16.20
2018-09-28T11:12:48.871Z,16.10
2018-09-28T11:15:17.652Z,16.10
2018-09-28T11:17:46.152Z,16.10
2018-09-28T11:20:14.616Z,16.10
2018-09-28T11:22:43.255Z,16.10
2018-09-28T11:25:11.761Z,16.00
2018-09-28T11:27:44.505Z,16.00
2018-09-28T11:30:13.065Z,16.00
2018-09-28T11:32:41.432Z,16.00
2018-09-28T11:35:10.227Z,16.00
2018-09-28T11:37:38.604Z,16.00
2018-09-28T11:40:06.954Z,16.10
2018-09-28T11:42:35.343Z,16.10
2018-09-28T11:45:04.346Z,16.10
2018-09-28T11:47:32.816Z,16.10
2018-09-28T11:50:01.147Z,16.00
2018-09-28T11:52:30.462Z,16.00
2018-09-28T11:54:59.718Z,16.10
2018-09-28T12:21:04.072Z,16.20
2018-09-28T12:23:32.647Z,16.50
2018-09-28T12:26:01.099Z,16.50
2018-09-28T12:28:29.327Z,16.50
2018-09-28T12:30:57.669Z,16.50
2018-09-28T12:33:26.227Z,16.50
2018-09-28T12:35:54.832Z,16.50
2018-09-28T12:38:23.643Z,16.40
2018-09-28T12:40:51.911Z,16.40
2018-09-28T12:43:20.233Z,16.60
2018-09-28T12:45:48.621Z,16.70
2018-09-28T12:48:16.884Z,16.70
2018-09-28T12:50:45.191Z,16.80
2018-09-28T12:53:13.543Z,17.00
2018-09-28T12:55:41.796Z,17.30
2018-09-28T12:58:10.510Z,17.50
2018-09-28T13:00:39.548Z,17.60
2018-09-28T13:03:08.423Z,17.70
2018-09-28T13:05:36.937Z,17.70
2018-09-28T13:08:05.371Z,17.60
2018-09-28T13:10:33.644Z,17.60
2018-09-28T13:13:02.476Z,17.60
2018-09-28T13:15:30.758Z,17.60
2018-09-28T13:17:59.111Z,17.50
2018-09-28T13:20:28.651Z,17.40
2018-09-28T13:22:56.898Z,17.40
2018-09-28T13:25:25.159Z,17.40
2018-09-28T13:27:53.376Z,17.40
2018-09-28T13:30:21.935Z,17.40
2018-09-28T13:32:50.456Z,17.40
2018-09-28T13:35:18.814Z,17.30
2018-09-28T13:37:47.102Z,17.30
2018-09-28T13:40:15.600Z,17.20
2018-09-28T13:42:44.022Z,17.30
2018-09-28T13:45:12.686Z,17.50
2018-09-28T13:47:40.914Z,17.50
2018-09-28T13:50:09.232Z,17.60
2018-09-28T13:52:37.524Z,17.60
2018-09-28T13:55:05.871Z,17.50
2018-09-28T13:57:34.315Z,17.50
2018-09-28T14:00:02.808Z,17.50
2018-09-28T14:02:31.155Z,17.50
2018-09-28T14:04:59.385Z,17.50
2018-09-28T14:07:27.696Z,17.60
2018-09-28T14:09:56.327Z,17.50
2018-09-28T14:12:25.287Z,17.50
2018-09-28T14:14:53.581Z,17.50
2018-09-28T14:17:21.996Z,17.60
2018-09-28T14:19:50.228Z,17.70
2018-09-28T14:22:18.527Z,17.60
2018-09-28T14:24:46.887Z,17.60
2018-09-28T14:27:15.399Z,17.70
2018-09-28T14:29:43.659Z,17.70
2018-09-28T14:32:11.942Z,17.70
2018-09-28T14:34:40.239Z,17.80
2018-09-28T14:37:08.602Z,17.80
2018-09-28T14:39:36.914Z,18.00
2018-09-28T14:42:05.326Z,18.20
2018-09-28T14:44:33.813Z,18.30
2018-09-28T14:47:02.071Z,18.20
2018-09-28T14:49:30.384Z,18.30
2018-09-28T14:51:58.661Z,18.40
2018-09-28T14:54:27.130Z,18.50
2018-09-28T14:56:55.408Z,18.50
2018-09-28T14:59:25.644Z,18.40
2018-09-28T15:01:54.020Z,18.20
2018-09-28T15:04:22.451Z,18.10
2018-09-28T15:06:50.817Z,18.20
2018-09-28T15:09:20.290Z,18.10
2018-09-28T15:11:48.603Z,18.10
2018-09-28T15:14:16.948Z,18.00
2018-09-28T15:16:45.198Z,17.90
2018-09-28T15:19:13.980Z,17.90
2018-09-28T15:21:42.218Z,17.80
2018-09-28T15:24:10.596Z,17.80
2018-09-28T15:26:38.923Z,17.80
2018-09-28T15:29:07.157Z,17.90
2018-09-28T15:31:35.442Z,17.90
2018-09-28T15:34:03.699Z,17.90
2018-09-28T15:36:32.082Z,17.90
2018-09-28T15:39:01.027Z,17.80
2018-09-28T15:41:29.311Z,17.70
2018-09-28T15:43:57.711Z,17.70
2018-09-28T15:46:27.308Z,17.70
2018-09-28T15:48:55.677Z,17.50
2018-09-28T15:51:24.421Z,17.50
2018-09-28T15:53:52.682Z,17.30
2018-09-28T15:56:21.029Z,17.40
2018-09-28T15:58:50.295Z,17.40
2018-09-28T16:01:18.939Z,17.40
2018-09-28T16:03:47.230Z,17.50
2018-09-28T16:06:15.822Z,17.40
2018-09-28T16:08:44.223Z,17.40
2018-09-28T16:11:13.123Z,17.50
2018-09-28T16:13:41.428Z,17.50
2018-09-28T16:16:10.278Z,17.50
2018-09-28T16:18:39.204Z,17.50
2018-09-28T16:21:07.488Z,17.40
2018-09-28T16:23:36.510Z,17.40
2018-09-28T16:26:04.803Z,17.40
2018-09-28T16:28:33.159Z,17.30
2018-09-28T16:31:01.496Z,17.30
2018-09-28T16:33:29.893Z,17.30
2018-09-28T16:35:58.260Z,17.30
2018-09-28T16:38:26.674Z,17.30
2018-09-28T16:40:54.987Z,17.30
2018-09-28T16:43:23.638Z,17.30
2018-09-28T16:45:52.594Z,17.30
2018-09-28T16:48:20.960Z,17.20
2018-09-28T16:50:49.259Z,17.20
2018-09-28T16:53:18.383Z,17.20
2018-09-28T16:55:46.902Z,17.20
2018-09-28T16:58:15.558Z,17.10
2018-09-28T17:00:44.127Z,17.20
2018-09-28T17:03:12.510Z,17.20
2018-09-28T17:05:40.778Z,17.20
2018-09-28T17:08:09.073Z,17.20
2018-09-28T17:10:37.386Z,17.20
2018-09-28T17:13:05.662Z,17.20
2018-09-28T17:15:34.103Z,17.10
2018-09-28T17:18:02.577Z,17.00
2018-09-28T17:20:30.978Z,16.90
2018-09-28T17:22:59.467Z,16.80
2018-09-28T17:25:27.874Z,16.80
2018-09-28T17:27:56.882Z,16.70
2018-09-28T17:30:25.162Z,16.70
2018-09-28T17:32:53.405Z,16.60
2018-09-28T17:35:21.665Z,16.50
2018-09-28T17:37:49.996Z,16.50
2018-09-28T17:42:57.615Z,16.40
2018-09-28T17:45:25.946Z,16.40
2018-09-28T17:47:54.864Z,16.40
2018-09-28T17:50:23.134Z,16.30
2018-09-28T17:52:51.593Z,16.30
2018-09-28T17:55:20.261Z,16.30
2018-09-28T17:57:49.336Z,16.30
2018-09-28T18:00:17.892Z,16.20
2018-09-28T18:02:46.324Z,16.20
2018-09-28T18:05:14.786Z,16.20
2018-09-28T18:07:44.034Z,16.20
2018-09-28T18:10:12.414Z,16.10
2018-09-28T18:12:40.724Z,16.10
2018-09-28T18:15:09.063Z,16.10
2018-09-28T18:17:37.341Z,16.10
2018-09-28T18:20:05.783Z,16.10
2018-09-28T18:22:34.004Z,16.00
2018-09-28T18:25:02.499Z,16.00
2018-09-28T18:30:13.984Z,16.00
2018-09-28T18:32:42.270Z,15.90
2018-09-28T18:35:10.658Z,15.90
2018-09-28T18:37:39.013Z,15.80
2018-09-28T18:40:07.578Z,15.80
2018-09-28T18:42:36.165Z,15.80
2018-09-28T18:45:04.866Z,15.80
2018-09-28T18:47:33.433Z,15.80
2018-09-28T18:50:01.702Z,15.70
2018-09-28T18:52:30.035Z,15.70
2018-09-28T18:54:58.517Z,15.70
2018-09-28T18:57:26.790Z,15.70
2018-09-28T18:59:55.114Z,15.60
2018-09-28T19:02:23.391Z,15.60
2018-09-28T19:04:51.744Z,15.60
2018-09-28T19:07:20.041Z,15.60
2018-09-28T19:09:48.360Z,15.60
2018-09-28T19:12:16.763Z,15.50
2018-09-28T19:14:45.090Z,15.50
2018-09-28T19:17:13.347Z,15.50
2018-09-28T19:19:41.680Z,15.50
2018-09-28T19:22:09.946Z,15.40
2018-09-28T19:24:38.312Z,15.40
2018-09-28T19:27:06.680Z,15.40
2018-09-28T19:29:35.399Z,15.40
2018-09-28T19:32:03.670Z,15.30
2018-09-28T19:34:31.914Z,15.30
2018-09-28T19:37:00.294Z,15.30
2018-09-28T19:39:28.679Z,15.20
2018-09-28T19:41:56.973Z,15.20
2018-09-28T19:44:25.316Z,15.20
2018-09-28T19:46:53.608Z,15.20
2018-09-28T19:49:21.935Z,15.20
2018-09-28T19:51:50.200Z,15.10
2018-09-28T19:54:18.772Z,15.10
2018-09-28T19:56:47.494Z,15.00
2018-09-28T19:59:15.812Z,15.00
2018-09-28T20:01:44.075Z,15.00
2018-09-28T20:04:12.386Z,15.00
2018-09-28T20:06:40.613Z,14.90
2018-09-28T20:09:10.154Z,14.90
2018-09-28T20:11:38.460Z,14.90
2018-09-28T20:14:06.807Z,14.90
2018-09-28T20:16:35.026Z,14.80
2018-09-28T20:19:03.552Z,14.80
2018-09-28T20:21:32.143Z,14.80
2018-09-28T20:24:00.381Z,14.80
2018-09-28T20:26:28.720Z,14.80
2018-09-28T20:28:56.984Z,14.80
2018-09-28T20:31:25.258Z,14.80
2018-09-28T20:33:53.505Z,14.80
2018-09-28T20:36:21.720Z,14.80
2018-09-28T20:38:49.985Z,14.70
2018-09-28T20:41:18.255Z,14.70
2018-09-28T20:43:46.507Z,14.70
2018-09-28T20:46:15.284Z,14.70
2018-09-28T20:48:43.538Z,14.70
2018-09-28T20:51:11.870Z,14.70
2018-09-28T20:53:40.059Z,14.60
2018-09-28T20:56:08.401Z,14.60
2018-09-28T20:58:37.619Z,14.60
2018-09-28T21:01:05.971Z,14.70
2018-09-28T21:03:34.142Z,14.70
2018-09-28T21:06:02.472Z,14.60
2018-09-28T21:08:30.738Z,14.60
2018-09-28T21:10:58.985Z,14.60
2018-09-28T21:13:27.322Z,14.50
2018-09-28T21:15:55.689Z,14.40
2018-09-28T21:18:23.980Z,14.40
2018-09-28T21:20:52.411Z,14.40
2018-09-28T21:23:20.670Z,14.40
2018-09-28T21:25:48.854Z,14.40
2018-09-28T21:28:17.101Z,14.30
2018-09-28T21:30:45.334Z,14.30
2018-09-28T21:33:13.665Z,14.30
2018-09-28T21:35:41.945Z,14.30
2018-09-28T21:38:10.303Z,14.30
2018-09-28T21:40:38.563Z,14.30
2018-09-28T21:43:07.102Z,14.30
2018-09-28T21:45:35.448Z,14.20
2018-09-28T21:48:03.887Z,14.20
2018-09-28T21:50:32.200Z,14.20
2018-09-28T21:53:00.593Z,14.20
2018-09-28T21:55:28.869Z,14.20
2018-09-28T21:57:57.125Z,14.10
2018-09-28T22:00:25.346Z,14.10
2018-09-28T22:02:53.617Z,14.00
2018-09-28T22:05:22.795Z,14.00
2018-09-28T22:07:51.136Z,14.10
2018-09-28T22:10:19.591Z,14.00
2018-09-28T22:12:47.884Z,14.10
2018-09-28T22:15:16.179Z,14.10
2018-09-28T22:17:44.785Z,14.10
2018-09-28T22:20:13.323Z,14.10
2018-09-28T22:22:41.685Z,14.00
2018-09-28T22:25:10.044Z,14.00
2018-09-28T22:27:38.600Z,14.00
2018-09-28T22:30:07.026Z,14.00
2018-09-28T22:32:35.421Z,13.90
2018-09-28T22:35:03.670Z,13.90
2018-09-28T22:37:32.012Z,13.90
2018-09-28T22:40:00.326Z,13.80
2018-09-28T22:42:28.791Z,13.80
2018-09-28T22:44:57.239Z,13.80
2018-09-28T22:47:25.546Z,13.80
2018-09-28T22:49:53.810Z,13.80
2018-09-28T22:52:22.101Z,13.70
2018-09-28T22:54:50.348Z,13.70
2018-09-28T22:57:18.907Z,13.70
2018-09-28T22:59:47.282Z,13.70
2018-09-28T23:02:16.263Z,13.70
2018-09-28T23:04:44.603Z,13.70
2018-09-28T23:07:13.520Z,13.60
2018-09-28T23:09:41.847Z,13.60
2018-09-28T23:12:10.138Z,13.60
2018-09-28T23:14:38.495Z,13.50
2018-09-28T23:17:06.910Z,13.50
2018-09-28T23:19:35.183Z,13.50
2018-09-28T23:22:03.590Z,13.40
2018-09-28T23:24:32.150Z,13.50
2018-09-28T23:27:00.370Z,13.40
2018-09-28T23:29:28.674Z,13.40
2018-09-28T23:31:56.942Z,13.40
2018-09-28T23:34:25.709Z,13.40
2018-09-28T23:36:53.954Z,13.40
2018-09-28T23:39:22.400Z,13.40
2018-09-28T23:41:50.733Z,13.40
2018-09-28T23:44:19.018Z,13.40
2018-09-28T23:46:47.347Z,13.40
2018-09-28T23:49:15.589Z,13.40
2018-09-28T23:51:43.830Z,13.30
2018-09-28T23:54:12.073Z,13.30
2018-09-28T23:56:40.341Z,13.30
2018-09-28T23:59:08.711Z,13.30
